createdAt,value
2022-07-30T00:00:24.758Z,3.00
2022-07-30T00:02:53.201Z,2.50
2022-07-30T00:05:21.105Z,2.87
2022-07-30T00:07:48.528Z,3.00
2022-07-30T00:10:16.554Z,2.83
2022-07-30T00:12:44.309Z,2.70
2022-07-30T00:15:11.686Z,2.80
2022-07-30T00:17:39.038Z,2.90
2022-07-30T00:20:09.068Z,3.40
2022-07-30T00:22:38.663Z,2.97
2022-07-30T00:25:06.700Z,3.17
2022-07-30T00:27:35.446Z,3.77
2022-07-30T00:30:04.817Z,2.80
2022-07-30T00:32:32.277Z,3.20
2022-07-30T00:34:59.618Z,3.07
2022-07-30T00:37:26.982Z,2.20
2022-07-30T00:39:54.352Z,2.53
2022-07-30T00:42:25.834Z,2.70
2022-07-30T00:44:53.633Z,3.40
2022-07-30T00:47:21.215Z,3.40
2022-07-30T00:49:49.155Z,2.97
2022-07-30T00:52:16.955Z,3.07
2022-07-30T00:54:44.679Z,3.50
2022-07-30T00:57:12.099Z,3.23
2022-07-30T00:59:39.421Z,3.20
2022-07-30T01:02:07.393Z,2.90
2022-07-30T01:04:34.825Z,2.87
2022-07-30T01:07:02.635Z,3.40
2022-07-30T01:09:30.279Z,2.80
2022-07-30T01:11:58.454Z,3.10
2022-07-30T01:14:26.162Z,3.10
2022-07-30T01:16:54.112Z,3.37
2022-07-30T01:19:45.380Z,2.90
2022-07-30T01:22:31.428Z,3.30
2022-07-30T01:25:12.094Z,3.10
2022-07-30T01:27:56.850Z,3.30
2022-07-30T01:30:29.258Z,3.63
2022-07-30T01:32:57.805Z,3.70
2022-07-30T01:35:28.247Z,3.53
2022-07-30T01:37:57.828Z,3.87
2022-07-30T01:40:27.369Z,3.67
2022-07-30T01:42:58.310Z,3.33
2022-07-30T01:45:28.722Z,3.27
2022-07-30T01:48:00.218Z,3.73
2022-07-30T01:50:29.369Z,3.70
2022-07-30T01:52:58.804Z,4.07
2022-07-30T01:55:36.560Z,3.83
2022-07-30T01:58:06.119Z,3.30
2022-07-30T02:00:38.610Z,3.27
2022-07-30T02:03:08.888Z,3.70
2022-07-30T02:05:37.810Z,3.10
2022-07-30T02:08:15.893Z,2.73
2022-07-30T02:10:52.260Z,4.50
2022-07-30T02:13:26.874Z,3.40
2022-07-30T02:16:05.663Z,3.53
2022-07-30T02:18:58.393Z,3.70
2022-07-30T02:21:36.575Z,3.30
2022-07-30T02:24:12.576Z,3.40
2022-07-30T02:26:43.762Z,3.50
2022-07-30T02:29:11.858Z,4.03
2022-07-30T02:31:41.456Z,4.57
2022-07-30T02:34:10.898Z,3.67
2022-07-30T02:36:39.277Z,4.13
2022-07-30T02:39:08.366Z,3.60
2022-07-30T02:41:40.058Z,3.80
2022-07-30T02:44:10.109Z,4.00
2022-07-30T02:46:39.726Z,3.20
2022-07-30T02:49:28.397Z,3.40
2022-07-30T02:51:56.476Z,3.80
2022-07-30T02:54:25.067Z,3.30
2022-07-30T02:56:54.869Z,3.90
2022-07-30T02:59:23.756Z,3.43
2022-07-30T03:01:52.541Z,3.20
2022-07-30T03:04:21.439Z,3.17
2022-07-30T03:06:49.866Z,3.40
2022-07-30T03:09:18.503Z,3.83
2022-07-30T03:11:47.347Z,3.60
2022-07-30T03:14:14.924Z,3.90
2022-07-30T03:16:48.262Z,4.00
2022-07-30T03:19:21.560Z,4.17
2022-07-30T03:21:50.720Z,4.00
2022-07-30T03:24:19.330Z,4.30
2022-07-30T03:26:48.289Z,4.10
2022-07-30T03:29:17.734Z,3.67
2022-07-30T03:31:50.578Z,4.53
2022-07-30T03:34:19.358Z,3.37
2022-07-30T03:36:47.282Z,3.83
2022-07-30T03:39:15.326Z,3.53
2022-07-30T03:41:43.151Z,3.80
2022-07-30T03:44:16.384Z,4.03
2022-07-30T03:46:45.288Z,3.90
2022-07-30T03:49:13.807Z,3.80
2022-07-30T03:51:47.386Z,3.67
2022-07-30T03:54:16.854Z,3.77
2022-07-30T03:57:04.825Z,3.20
2022-07-30T03:59:52.035Z,3.20
2022-07-30T04:02:22.461Z,3.47
2022-07-30T04:05:18.738Z,3.80
2022-07-30T04:07:47.554Z,4.10
2022-07-30T04:10:17.003Z,3.40
2022-07-30T04:13:13.611Z,3.77
2022-07-30T04:16:40.302Z,4.20
2022-07-30T04:18:59.983Z,4.70
2022-07-30T04:21:29.923Z,3.83
2022-07-30T04:24:02.867Z,3.90
2022-07-30T04:26:36.529Z,4.60
2022-07-30T04:29:07.999Z,3.90
2022-07-30T04:31:40.157Z,3.70
2022-07-30T04:34:27.998Z,4.00
2022-07-30T04:36:56.492Z,4.37
2022-07-30T04:39:24.142Z,3.73
2022-07-30T04:41:51.857Z,3.80
2022-07-30T04:44:34.429Z,3.97
2022-07-30T04:47:23.617Z,3.83
2022-07-30T04:50:12.498Z,4.20
2022-07-30T04:52:42.090Z,4.20
2022-07-30T04:55:12.386Z,4.60
2022-07-30T04:57:42.517Z,4.20
2022-07-30T05:00:10.972Z,5.00
2022-07-30T05:02:42.464Z,4.73
2022-07-30T05:05:12.231Z,5.20
2022-07-30T05:07:40.731Z,4.90
2022-07-30T05:10:11.196Z,4.60
2022-07-30T05:12:39.343Z,5.30
2022-07-30T05:15:08.758Z,4.80
2022-07-30T05:17:37.472Z,4.73
2022-07-30T05:20:07.651Z,5.60
2022-07-30T05:22:52.086Z,5.23
2022-07-30T05:25:21.689Z,4.93
2022-07-30T05:27:51.622Z,5.80
2022-07-30T05:30:19.140Z,6.50
2022-07-30T05:32:51.654Z,5.90
2022-07-30T05:35:19.393Z,6.67
2022-07-30T05:37:47.361Z,6.20
2022-07-30T05:40:14.852Z,6.50
2022-07-30T05:43:02.235Z,6.00
2022-07-30T05:45:29.976Z,6.30
2022-07-30T05:47:57.373Z,5.40
2022-07-30T05:50:25.115Z,5.60
2022-07-30T05:52:52.543Z,5.63
2022-07-30T05:55:43.273Z,5.73
2022-07-30T05:58:36.399Z,5.70
2022-07-30T06:01:03.858Z,6.70
2022-07-30T06:03:32.425Z,6.27
2022-07-30T06:06:22.757Z,6.70
2022-07-30T06:08:50.693Z,6.70
2022-07-30T06:11:18.612Z,6.30
2022-07-30T06:13:46.231Z,6.60
2022-07-30T06:16:13.850Z,7.03
2022-07-30T06:18:41.342Z,7.10
2022-07-30T06:21:17.295Z,7.73
2022-07-30T06:24:04.044Z,7.80
2022-07-30T06:26:41.218Z,8.20
2022-07-30T06:29:09.679Z,8.03
2022-07-30T06:31:41.536Z,8.60
2022-07-30T06:34:11.082Z,8.10
2022-07-30T06:36:42.090Z,7.87
2022-07-30T06:39:15.254Z,8.50
2022-07-30T06:42:21.218Z,8.30
2022-07-30T06:45:07.679Z,7.93
2022-07-30T06:48:00.972Z,7.90
2022-07-30T06:50:32.179Z,8.20
2022-07-30T06:53:00.620Z,9.13
2022-07-30T06:55:40.812Z,9.37
2022-07-30T06:58:08.244Z,7.90
2022-07-30T07:01:01.858Z,7.67
2022-07-30T07:03:39.664Z,8.23
2022-07-30T07:06:08.020Z,8.20
2022-07-30T07:08:38.692Z,6.60
2022-07-30T07:11:07.791Z,7.40
2022-07-30T07:13:44.797Z,7.37
2022-07-30T07:16:21.749Z,7.63
2022-07-30T07:18:50.303Z,6.80
2022-07-30T07:21:17.962Z,6.70
2022-07-30T07:23:45.539Z,6.30
2022-07-30T07:26:36.235Z,6.17
2022-07-30T07:29:05.333Z,6.20
2022-07-30T07:32:05.314Z,6.40
2022-07-30T07:34:21.761Z,7.07
2022-07-30T07:36:49.136Z,6.50
2022-07-30T07:39:17.533Z,6.30
2022-07-30T07:41:48.351Z,6.43
2022-07-30T07:44:19.003Z,6.20
2022-07-30T07:46:46.445Z,6.03
2022-07-30T07:49:14.091Z,5.73
2022-07-30T07:51:48.712Z,5.43
2022-07-30T07:54:22.958Z,5.40
2022-07-30T07:56:53.374Z,5.70
2022-07-30T07:59:36.262Z,5.90
2022-07-30T08:02:11.986Z,5.83
2022-07-30T08:04:53.908Z,6.43
2022-07-30T08:07:40.575Z,5.70
2022-07-30T08:10:26.553Z,5.60
2022-07-30T08:13:04.036Z,5.27
2022-07-30T08:16:02.007Z,5.77
2022-07-30T08:18:53.838Z,5.53
2022-07-30T08:21:35.106Z,5.43
2022-07-30T08:24:02.649Z,5.50
2022-07-30T08:26:30.263Z,6.00
2022-07-30T08:28:58.999Z,5.60
2022-07-30T08:31:26.698Z,5.83
2022-07-30T08:33:54.427Z,6.23
2022-07-30T08:36:25.993Z,6.37
2022-07-30T08:38:54.319Z,5.30
2022-07-30T08:41:25.279Z,5.83
2022-07-30T08:43:55.581Z,5.70
2022-07-30T08:46:24.973Z,6.17
2022-07-30T08:49:09.173Z,5.40
2022-07-30T08:51:40.060Z,5.73
2022-07-30T08:54:23.598Z,5.67
2022-07-30T08:56:51.025Z,5.53
2022-07-30T08:59:19.021Z,5.13
2022-07-30T09:01:46.615Z,4.87
2022-07-30T09:04:15.275Z,4.40
2022-07-30T09:06:42.902Z,4.47
2022-07-30T09:09:11.247Z,4.30
2022-07-30T09:11:38.673Z,4.43
2022-07-30T09:14:11.529Z,4.10
2022-07-30T09:16:41.085Z,4.13
2022-07-30T09:19:19.001Z,4.10
2022-07-30T09:21:58.201Z,4.10
2022-07-30T09:24:45.839Z,4.67
2022-07-30T09:27:51.265Z,4.50
2022-07-30T09:30:56.001Z,4.20
2022-07-30T09:33:47.369Z,4.70
2022-07-30T09:36:33.519Z,4.40
2022-07-30T09:39:32.449Z,3.93
2022-07-30T09:42:26.709Z,4.60
2022-07-30T09:45:12.770Z,4.40
2022-07-30T09:47:45.113Z,4.30
2022-07-30T09:50:17.977Z,4.60
2022-07-30T09:53:09.685Z,6.20
2022-07-30T09:55:42.284Z,6.43
2022-07-30T09:58:13.075Z,4.97
2022-07-30T10:00:59.590Z,4.70
2022-07-30T10:03:47.835Z,3.87
2022-07-30T10:06:38.339Z,4.33
2022-07-30T10:09:37.328Z,4.07
2022-07-30T10:12:11.028Z,4.77
2022-07-30T10:14:45.623Z,4.20
2022-07-30T10:17:17.507Z,4.30
2022-07-30T10:19:55.286Z,4.50
2022-07-30T10:22:42.817Z,3.40
2022-07-30T10:25:31.186Z,4.37
2022-07-30T10:28:18.231Z,3.90
2022-07-30T10:30:51.207Z,3.40
2022-07-30T10:33:34.442Z,4.13
2022-07-30T10:36:04.280Z,4.17
2022-07-30T10:38:39.466Z,4.33
2022-07-30T10:41:44.382Z,3.70
2022-07-30T10:44:39.818Z,4.60
2022-07-30T10:47:11.210Z,4.03
2022-07-30T10:49:40.996Z,3.97
2022-07-30T10:52:12.122Z,3.90
2022-07-30T10:54:40.897Z,3.90
2022-07-30T10:57:15.113Z,4.10
2022-07-30T10:59:58.181Z,4.37
2022-07-30T11:02:30.757Z,3.47
2022-07-30T11:05:17.949Z,3.90
2022-07-30T11:07:47.221Z,3.90
2022-07-30T11:10:34.786Z,3.90
2022-07-30T11:13:02.842Z,3.77
2022-07-30T11:15:59.720Z,3.90
2022-07-30T11:18:28.633Z,4.10
2022-07-30T11:21:21.218Z,4.20
2022-07-30T11:23:54.765Z,4.70
2022-07-30T11:26:41.053Z,4.00
2022-07-30T11:29:50.805Z,3.50
2022-07-30T11:32:31.986Z,4.43
2022-07-30T11:35:23.144Z,3.57
2022-07-30T11:38:12.107Z,3.87
2022-07-30T11:41:02.488Z,3.73
2022-07-30T11:43:35.930Z,3.90
2022-07-30T11:46:12.377Z,3.73
2022-07-30T11:48:59.930Z,3.60
2022-07-30T11:51:27.522Z,3.30
2022-07-30T11:54:02.514Z,3.43
2022-07-30T11:56:30.639Z,2.93
2022-07-30T11:59:05.918Z,3.20
2022-07-30T12:01:35.103Z,2.90
2022-07-30T12:04:04.963Z,3.10
2022-07-30T12:06:32.685Z,3.27
2022-07-30T12:09:00.391Z,3.37
2022-07-30T12:11:35.165Z,3.10
2022-07-30T12:14:04.923Z,3.42
2022-07-30T12:16:33.641Z,3.60
2022-07-30T12:19:02.674Z,3.33
2022-07-30T12:21:30.878Z,2.57
2022-07-30T12:24:01.296Z,2.80
2022-07-30T12:26:32.590Z,2.70
2022-07-30T12:29:10.027Z,2.53
2022-07-30T12:31:39.851Z,2.63
2022-07-30T12:34:20.758Z,2.40
2022-07-30T12:36:48.915Z,2.03
2022-07-30T12:39:34.449Z,2.57
2022-07-30T12:42:03.399Z,2.87
2022-07-30T12:44:34.705Z,2.57
2022-07-30T12:47:04.405Z,2.83
2022-07-30T12:49:37.724Z,2.70
2022-07-30T12:52:09.662Z,3.00
2022-07-30T12:54:41.402Z,2.37
2022-07-30T12:57:09.502Z,2.10
2022-07-30T12:59:38.599Z,2.60
2022-07-30T13:02:06.014Z,2.50
2022-07-30T13:04:37.102Z,2.70
2022-07-30T13:07:09.613Z,2.83
2022-07-30T13:09:38.493Z,2.67
2022-07-30T13:12:06.507Z,2.60
2022-07-30T13:14:34.040Z,2.13
2022-07-30T13:17:04.225Z,2.77
2022-07-30T13:19:32.205Z,2.33
2022-07-30T13:22:00.129Z,3.33
2022-07-30T13:24:27.505Z,2.70
2022-07-30T13:26:54.967Z,2.60
2022-07-30T13:29:22.913Z,3.27
2022-07-30T13:31:52.664Z,2.77
2022-07-30T13:34:20.536Z,2.67
2022-07-30T13:36:47.985Z,3.00
2022-07-30T13:39:15.428Z,2.47
2022-07-30T13:41:43.249Z,2.30
2022-07-30T13:44:11.218Z,2.97
2022-07-30T13:46:41.387Z,2.20
2022-07-30T13:49:10.705Z,2.23
2022-07-30T13:51:38.286Z,2.50
2022-07-30T13:54:07.264Z,2.20
2022-07-30T13:56:34.981Z,2.70
2022-07-30T13:59:08.884Z,2.47
2022-07-30T14:01:36.788Z,2.70
2022-07-30T14:04:05.934Z,1.70
2022-07-30T14:06:33.266Z,2.40
2022-07-30T14:09:00.957Z,2.23
2022-07-30T14:11:28.575Z,2.60
2022-07-30T14:13:56.439Z,2.70
2022-07-30T14:16:44.341Z,2.13
2022-07-30T14:19:23.123Z,2.43
2022-07-30T14:21:53.662Z,2.37
2022-07-30T14:24:22.928Z,2.43
2022-07-30T14:26:54.434Z,2.37
2022-07-30T14:29:26.084Z,2.47
2022-07-30T14:31:53.986Z,2.10
2022-07-30T14:34:21.560Z,2.67
2022-07-30T14:36:49.097Z,2.33
2022-07-30T14:39:16.455Z,2.20
2022-07-30T14:41:44.322Z,2.17
2022-07-30T14:44:13.678Z,2.23
2022-07-30T14:46:51.567Z,2.17
2022-07-30T14:49:21.335Z,2.80
2022-07-30T14:51:50.381Z,5.77
2022-07-30T14:54:18.505Z,4.30
2022-07-30T14:56:45.895Z,2.57
2022-07-30T14:59:13.411Z,2.17
2022-07-30T15:01:43.011Z,2.20
2022-07-30T15:04:11.539Z,2.80
2022-07-30T15:06:40.797Z,2.17
2022-07-30T15:09:09.150Z,2.47
2022-07-30T15:11:56.657Z,2.90
2022-07-30T15:14:26.894Z,2.73
2022-07-30T15:16:59.402Z,2.07
2022-07-30T15:19:30.829Z,2.40
2022-07-30T15:21:59.095Z,2.20
2022-07-30T15:24:26.988Z,31.07
2022-07-30T15:26:57.287Z,15.27
2022-07-30T15:29:27.287Z,19.60
2022-07-30T15:31:54.682Z,2.90
2022-07-30T15:34:22.462Z,4.23
2022-07-30T15:36:49.874Z,6.50
2022-07-30T15:39:17.265Z,8.33
2022-07-30T15:41:45.090Z,3.60
2022-07-30T15:44:14.168Z,6.70
2022-07-30T15:46:41.495Z,3.13
2022-07-30T15:49:09.980Z,2.37
2022-07-30T15:51:37.490Z,2.43
2022-07-30T15:54:06.694Z,2.33
2022-07-30T15:56:35.014Z,2.70
2022-07-30T15:59:02.891Z,2.40
2022-07-30T16:01:30.871Z,2.50
2022-07-30T16:03:58.864Z,2.70
2022-07-30T16:06:26.565Z,3.17
2022-07-30T16:08:53.908Z,2.77
2022-07-30T16:11:21.492Z,2.80
2022-07-30T16:13:50.060Z,3.40
2022-07-30T16:16:17.435Z,2.77
2022-07-30T16:18:44.817Z,2.30
2022-07-30T16:21:12.263Z,2.63
2022-07-30T16:23:40.190Z,2.80
2022-07-30T16:26:07.899Z,2.57
2022-07-30T16:28:35.310Z,3.47
2022-07-30T16:31:03.889Z,2.97
2022-07-30T16:33:31.218Z,5.00
2022-07-30T16:35:58.579Z,4.67
2022-07-30T16:38:25.992Z,3.10
2022-07-30T16:40:53.369Z,2.37
2022-07-30T16:43:20.975Z,2.80
2022-07-30T16:45:48.558Z,3.17
2022-07-30T16:48:16.191Z,2.70
2022-07-30T16:50:44.319Z,2.23
2022-07-30T16:53:14.202Z,2.60
2022-07-30T16:55:45.691Z,3.27
2022-07-30T16:58:13.613Z,4.70
2022-07-30T17:00:41.490Z,4.53
2022-07-30T17:03:09.281Z,4.53
2022-07-30T17:05:45.127Z,3.20
2022-07-30T17:08:12.813Z,7.00
2022-07-30T17:10:40.978Z,4.67
2022-07-30T17:13:08.487Z,3.20
2022-07-30T17:15:35.830Z,3.27
2022-07-30T17:18:04.050Z,2.70
2022-07-30T17:20:32.129Z,2.60
2022-07-30T17:22:59.536Z,3.00
2022-07-30T17:25:29.788Z,2.67
2022-07-30T17:27:58.485Z,2.97
2022-07-30T17:30:27.804Z,2.90
2022-07-30T17:32:55.617Z,2.90
2022-07-30T17:35:24.905Z,2.63
2022-07-30T17:37:52.497Z,3.30
2022-07-30T17:40:30.802Z,2.70
2022-07-30T17:43:07.497Z,3.00
2022-07-30T17:45:36.777Z,2.77
2022-07-30T17:48:05.559Z,2.53
2022-07-30T17:50:34.281Z,3.13
2022-07-30T17:53:04.018Z,2.30
2022-07-30T17:55:34.939Z,2.73
2022-07-30T17:58:04.448Z,2.57
2022-07-30T18:00:32.685Z,2.80
2022-07-30T18:03:00.144Z,3.00
2022-07-30T18:05:28.702Z,3.03
2022-07-30T18:07:56.030Z,2.70
2022-07-30T18:10:23.514Z,2.63
2022-07-30T18:12:50.833Z,3.00
2022-07-30T18:15:19.446Z,3.10
2022-07-30T18:17:47.129Z,2.93
2022-07-30T18:20:15.107Z,3.40
2022-07-30T18:22:42.760Z,3.30
2022-07-30T18:25:17.964Z,2.80
2022-07-30T18:27:51.238Z,2.70
2022-07-30T18:30:20.292Z,3.10
2022-07-30T18:32:48.708Z,3.13
2022-07-30T18:35:16.735Z,2.90
2022-07-30T18:37:44.703Z,3.03
2022-07-30T18:40:14.173Z,3.30
2022-07-30T18:42:42.187Z,2.77
2022-07-30T18:45:13.639Z,2.47
2022-07-30T18:47:43.308Z,2.13
2022-07-30T18:50:13.759Z,2.20
2022-07-30T18:52:41.828Z,2.33
2022-07-30T18:55:13.860Z,2.53
2022-07-30T18:57:41.620Z,2.47
2022-07-30T19:00:31.192Z,2.30
2022-07-30T19:03:00.077Z,3.13
2022-07-30T19:05:27.657Z,3.10
2022-07-30T19:07:57.656Z,3.47
2022-07-30T19:10:27.097Z,3.07
2022-07-30T19:12:55.413Z,3.00
2022-07-30T19:15:23.166Z,3.20
2022-07-30T19:17:51.600Z,3.60
2022-07-30T19:20:20.071Z,3.80
2022-07-30T19:22:47.623Z,3.93
2022-07-30T19:25:18.031Z,3.50
2022-07-30T19:27:45.583Z,3.90
2022-07-30T19:30:13.488Z,3.47
2022-07-30T19:32:40.924Z,4.43
2022-07-30T19:35:13.543Z,3.70
2022-07-30T19:37:42.253Z,3.80
2022-07-30T19:40:14.090Z,3.97
2022-07-30T19:42:41.926Z,4.23
2022-07-30T19:45:12.163Z,4.43
2022-07-30T19:47:42.401Z,4.60
2022-07-30T19:50:11.563Z,4.30
2022-07-30T19:52:51.520Z,4.30
2022-07-30T19:55:30.737Z,4.30
2022-07-30T19:58:02.255Z,4.93
2022-07-30T20:00:31.757Z,5.03
2022-07-30T20:03:03.349Z,5.30
2022-07-30T20:05:32.125Z,4.80
2022-07-30T20:08:24.604Z,4.30
2022-07-30T20:10:52.489Z,3.67
2022-07-30T20:13:19.915Z,4.13
2022-07-30T20:15:49.675Z,4.60
2022-07-30T20:18:29.139Z,4.47
2022-07-30T20:20:57.610Z,4.00
2022-07-30T20:23:25.283Z,3.90
2022-07-30T20:25:52.885Z,4.37
2022-07-30T20:28:21.776Z,4.50
2022-07-30T20:30:53.328Z,4.60
2022-07-30T20:33:26.768Z,4.00
2022-07-30T20:36:05.151Z,4.60
2022-07-30T20:38:39.003Z,4.10
2022-07-30T20:41:09.966Z,4.40
2022-07-30T20:43:51.634Z,4.57
2022-07-30T20:49:09.055Z,5.30
2022-07-30T20:51:37.504Z,5.10
2022-07-30T20:54:05.150Z,4.97
2022-07-30T20:56:34.183Z,4.73
2022-07-30T20:59:02.109Z,5.33
2022-07-30T21:01:30.742Z,5.37
2022-07-30T21:03:58.769Z,5.50
2022-07-30T21:06:26.401Z,5.07
2022-07-30T21:08:56.235Z,5.33
2022-07-30T21:11:25.185Z,5.87
2022-07-30T21:13:53.932Z,5.67
2022-07-30T21:16:23.612Z,5.17
2022-07-30T21:18:50.965Z,5.13
2022-07-30T21:21:30.771Z,5.10
2022-07-30T21:24:11.827Z,5.40
2022-07-30T21:26:42.436Z,5.53
2022-07-30T21:29:10.291Z,5.37
2022-07-30T21:31:59.073Z,5.17
2022-07-30T21:34:26.481Z,4.87
2022-07-30T21:36:55.452Z,5.00
2022-07-30T21:39:29.309Z,4.80
2022-07-30T21:41:57.556Z,4.77
2022-07-30T21:44:25.266Z,4.80
2022-07-30T21:46:52.863Z,5.50
2022-07-30T21:49:22.196Z,5.13
2022-07-30T21:51:50.975Z,5.70
2022-07-30T21:54:28.819Z,5.17
2022-07-30T21:56:58.238Z,4.30
2022-07-30T21:59:27.820Z,5.13
2022-07-30T22:01:56.158Z,4.50
2022-07-30T22:04:24.230Z,4.47
2022-07-30T22:06:54.808Z,4.80
2022-07-30T22:09:34.182Z,4.60
2022-07-30T22:12:06.239Z,4.00
2022-07-30T22:14:37.965Z,4.60
2022-07-30T22:17:05.793Z,4.37
2022-07-30T22:19:50.096Z,3.73
2022-07-30T22:22:27.130Z,5.10
2022-07-30T22:24:59.998Z,4.97
2022-07-30T22:27:39.731Z,4.30
2022-07-30T22:30:10.178Z,4.60
2022-07-30T22:32:41.612Z,4.43
2022-07-30T22:35:10.698Z,5.40
2022-07-30T22:37:38.615Z,4.60
2022-07-30T22:40:07.255Z,4.80
2022-07-30T22:42:36.567Z,5.10
2022-07-30T22:45:35.978Z,4.77
2022-07-30T22:48:10.170Z,4.00
2022-07-30T22:50:40.156Z,5.00
2022-07-30T22:54:03.269Z,4.30
2022-07-30T22:55:58.557Z,4.80
2022-07-30T22:58:26.672Z,4.53
2022-07-30T23:00:54.803Z,5.47
2022-07-30T23:03:23.017Z,5.40
2022-07-30T23:05:56.323Z,4.67
2022-07-30T23:08:30.179Z,6.03
2022-07-30T23:10:59.608Z,5.90
2022-07-30T23:12:18.530Z,4.37
2022-07-30T23:13:28.601Z,6.20
2022-07-30T23:15:56.650Z,5.23
2022-07-30T23:18:25.039Z,6.73
2022-07-30T23:20:55.020Z,7.20
2022-07-30T23:23:24.478Z,6.43
2022-07-30T23:25:51.828Z,6.90
2022-07-30T23:28:19.207Z,6.93
2022-07-30T23:30:46.884Z,7.17
2022-07-30T23:33:16.227Z,6.03
2022-07-30T23:35:44.062Z,6.30
2022-07-30T23:38:11.430Z,7.60
2022-07-30T23:40:38.798Z,6.63
2022-07-30T23:43:06.430Z,7.53
2022-07-30T23:45:33.775Z,7.70
2022-07-30T23:48:03.473Z,7.90
2022-07-30T23:50:32.409Z,7.53
2022-07-30T23:53:00.869Z,8.30
2022-07-30T23:55:29.159Z,8.40
2022-07-30T23:57:56.809Z,8.67
